Charter Quote
Worldwide +1-877-727-2538 Call
Select Language Lang
SAFETY RELIABILITY EXPERIENCE

Erding Airport (ETSE) - Jet Charter Services

AIRPORT INFORMATION
ICAOETSE
LOCATIONMunich, Germany
FACILITY TYPEAIRPORT
Runway Length (ft) Width (ft) Surface Type Elevation (ft)
26/08 8271 98 CON 1514.00000

At Paramount Business Jets you can hire chartered private jets to and from Erding Airport with as little as 4 hours of notice. All flights booked via Paramount Business Jets are operated by certified direct air carriers that meet and exceed the FAA part 135 and 121 protocol or a foreign equivalent safety authority. Furthermore, Paramount Business Jets subscribes to ARGUS for their third party safety checks of operators, aircraft, and crews prior each and every flight to and from Erding Airport and worldwide.

  • Quote a trip using Erding Airport or call us 24/7 - 365 days a year at +1-877-727-2538.
Questions? Call +1-877-727-2538

METAR Weather Data at Erding Airport, ETSE

STATIONETSE
OBSERVEDFri Jan 30, 08:20 UTC
NOWTue Mar 19, 21:08 UTC
AGE36228:48 hr ago
WINDW at 15 mph, gusting to 26 mph
VISIBILITY2.6 miles
CONDITIONSsnow showers small hail
CLOUDSmostly cloudy
TEMP34°F (1°C)
WIND CHILL24°F (-4°C)
DEWPT30°F (-1°C)
HUMIDITY87%
BAROMETER979 hPa (28.91 in Hg)
METARETSE 300820Z 27013G23KT 1600 SHSNGS FEW006 BKN023 01/M01 Q0979 REGS YLO

Call us on +1-877-727-2538 (24 Hours) to Hire a Private Jet or Get a Quick Quote.

Find Airports Near any Location

Processing
...